createdAt,value
2023-03-06T00:03:56.135Z,51.06
2023-03-06T00:07:56.144Z,50.10
2023-03-06T00:11:56.281Z,50.69
2023-03-06T00:15:56.436Z,51.74
2023-03-06T00:19:56.538Z,52.29
2023-03-06T00:23:56.646Z,48.94
2023-03-06T00:27:56.779Z,49.67
2023-03-06T00:31:56.917Z,53.96
2023-03-06T00:35:57.132Z,52.25
2023-03-06T00:39:57.178Z,52.90
2023-03-06T00:43:57.372Z,51.70
2023-03-06T00:47:57.463Z,53.85
2023-03-06T00:51:57.679Z,55.07
2023-03-06T00:55:57.777Z,51.94
2023-03-06T00:59:57.950Z,54.22
2023-03-06T01:03:58.069Z,55.15
2023-03-06T01:07:58.256Z,51.72
2023-03-06T01:11:58.411Z,53.09
2023-03-06T01:15:58.528Z,50.43
2023-03-06T01:19:58.670Z,55.68
2023-03-06T01:23:58.861Z,49.69
2023-03-06T01:27:59.031Z,53.11
2023-03-06T01:31:59.409Z,52.08
2023-03-06T01:35:59.429Z,53.81
2023-03-06T01:39:59.577Z,54.42
2023-03-06T01:43:59.782Z,51.71
2023-03-06T01:47:59.992Z,54.65
2023-03-06T01:52:00.174Z,53.46
2023-03-06T01:56:00.419Z,55.11
2023-03-06T02:00:00.618Z,51.55
2023-03-06T02:04:00.807Z,52.23
2023-03-06T02:08:00.770Z,51.35
2023-03-06T02:12:00.754Z,53.94
2023-03-06T02:16:00.719Z,54.38
2023-03-06T02:20:00.685Z,53.00
2023-03-06T02:24:00.698Z,55.96
2023-03-06T02:28:00.633Z,52.47
2023-03-06T02:32:00.657Z,49.93
2023-03-06T02:36:00.653Z,52.91
2023-03-06T02:40:00.515Z,51.24
2023-03-06T02:44:00.573Z,52.53
2023-03-06T02:48:00.480Z,53.16
2023-03-06T02:52:00.465Z,50.92
2023-03-06T02:56:00.365Z,49.85
2023-03-06T03:00:00.333Z,55.40
2023-03-06T03:04:00.344Z,52.80
2023-03-06T03:08:00.297Z,52.79
2023-03-06T03:12:00.251Z,53.37
2023-03-06T03:16:00.327Z,52.40
2023-03-06T03:20:00.186Z,54.42
2023-03-06T03:24:00.140Z,55.57
2023-03-06T03:28:00.328Z,53.24
2023-03-06T03:32:00.641Z,53.67
2023-03-06T03:36:00.506Z,52.48
2023-03-06T03:40:00.466Z,54.75
2023-03-06T03:44:00.432Z,47.16
2023-03-06T03:48:00.387Z,53.78
2023-03-06T03:52:00.368Z,51.41
2023-03-06T03:56:00.332Z,53.19
2023-03-06T04:00:00.272Z,53.17
2023-03-06T04:04:00.220Z,53.98
2023-03-06T04:08:00.220Z,52.20
2023-03-06T04:12:00.232Z,52.29
2023-03-06T04:16:00.291Z,50.46
2023-03-06T04:20:00.161Z,53.86
2023-03-06T04:24:00.122Z,51.56
2023-03-06T04:28:00.117Z,52.37
2023-03-06T04:32:00.444Z,52.13
2023-03-06T04:36:00.014Z,52.11
2023-03-06T04:39:59.996Z,48.62
2023-03-06T04:43:59.992Z,53.85
2023-03-06T04:47:59.902Z,50.70
2023-03-06T04:51:59.930Z,53.56
2023-03-06T04:56:00.130Z,50.46
2023-03-06T05:00:00.337Z,50.78
2023-03-06T05:04:00.471Z,47.83
2023-03-06T05:08:00.463Z,31.81
2023-03-06T05:12:00.580Z,27.08
2023-03-06T05:16:00.797Z,28.95
2023-03-06T05:20:00.965Z,26.59
2023-03-06T05:24:01.160Z,27.29
2023-03-06T05:28:01.131Z,25.00
2023-03-06T05:32:01.208Z,32.64
2023-03-06T05:36:01.041Z,28.80
2023-03-06T05:40:01.007Z,27.35
2023-03-06T05:44:01.007Z,31.32
2023-03-06T05:48:00.919Z,28.90
2023-03-06T05:52:00.930Z,30.68
2023-03-06T05:56:00.853Z,30.38
2023-03-06T06:00:00.829Z,28.28
2023-03-06T06:04:00.763Z,31.10
2023-03-06T06:08:00.733Z,33.40
2023-03-06T06:12:00.722Z,29.37
2023-03-06T06:16:00.758Z,34.87
2023-03-06T06:20:00.718Z,38.36
2023-03-06T06:24:00.665Z,37.67
2023-03-06T06:28:00.560Z,40.01
2023-03-06T06:32:00.580Z,39.38
2023-03-06T06:36:01.014Z,36.98
2023-03-06T06:40:00.692Z,40.36
2023-03-06T06:44:00.799Z,37.25
2023-03-06T06:48:00.945Z,40.93
2023-03-06T06:52:01.007Z,33.03
2023-03-06T06:56:01.081Z,37.47
2023-03-06T07:00:01.172Z,35.70
2023-03-06T07:04:01.202Z,37.67
2023-03-06T07:08:01.345Z,39.71
2023-03-06T07:12:01.250Z,44.82
2023-03-06T07:16:01.280Z,46.05
2023-03-06T07:20:01.223Z,49.49
2023-03-06T07:24:01.281Z,53.90
2023-03-06T07:28:01.209Z,52.26
2023-03-06T07:32:01.217Z,52.97
2023-03-06T07:36:01.141Z,50.43
2023-03-06T07:40:01.062Z,36.18
2023-03-06T07:44:01.072Z,42.78
2023-03-06T07:48:00.974Z,26.88
2023-03-06T07:52:00.922Z,30.82
2023-03-06T07:56:00.922Z,44.71
2023-03-06T08:00:00.875Z,49.47
2023-03-06T08:04:00.870Z,56.68
2023-03-06T08:08:00.812Z,57.10
2023-03-06T08:12:00.848Z,63.66
2023-03-06T08:16:00.821Z,66.56
2023-03-06T08:20:00.839Z,66.02
2023-03-06T08:24:00.801Z,75.77
2023-03-06T08:28:00.977Z,74.23
2023-03-06T08:32:01.120Z,93.47
2023-03-06T08:36:02.304Z,101.34
2023-03-06T08:40:00.675Z,130.91
2023-03-06T08:44:00.630Z,113.95
2023-03-06T08:48:00.594Z,107.04
2023-03-06T08:52:01.020Z,130.31
2023-03-06T08:56:00.541Z,150.82
2023-03-06T09:00:00.518Z,146.17
2023-03-06T09:04:00.473Z,142.48
2023-03-06T09:08:00.459Z,128.45
2023-03-06T09:12:00.430Z,129.08
2023-03-06T09:16:00.354Z,125.56
2023-03-06T09:20:00.330Z,125.29
2023-03-06T09:24:00.299Z,124.90
2023-03-06T09:28:10.905Z,97.97
2023-03-06T09:32:01.223Z,66.53
2023-03-06T09:36:00.239Z,24.90
2023-03-06T09:40:00.175Z,19.63
2023-03-06T09:44:00.258Z,60.86
2023-03-06T09:48:00.314Z,67.48
2023-03-06T09:52:00.479Z,81.47
2023-03-06T09:56:00.575Z,106.12
2023-03-06T10:00:03.878Z,121.23
2023-03-06T10:04:01.035Z,142.57
2023-03-06T10:08:00.688Z,150.15
2023-03-06T10:12:00.678Z,170.18
2023-03-06T10:16:00.694Z,169.34
2023-03-06T10:20:00.584Z,181.21
2023-03-06T10:24:00.522Z,178.38
2023-03-06T10:28:00.538Z,165.49
2023-03-06T10:32:00.625Z,157.06
2023-03-06T10:36:00.547Z,110.77
2023-03-06T10:40:00.412Z,127.79
2023-03-06T10:44:00.430Z,129.49
2023-03-06T10:48:00.354Z,127.95
2023-03-06T10:52:00.316Z,122.02
2023-03-06T10:56:00.265Z,117.05
2023-03-06T11:00:00.267Z,132.59
2023-03-06T11:04:00.359Z,142.03
2023-03-06T11:08:00.307Z,144.15
2023-03-06T11:12:07.744Z,151.04
2023-03-06T11:16:00.289Z,160.27
2023-03-06T11:20:00.222Z,175.46
2023-03-06T11:24:00.215Z,189.56
2023-03-06T11:28:00.125Z,180.79
2023-03-06T11:32:00.264Z,119.07
2023-03-06T11:36:00.254Z,138.08
2023-03-06T11:40:00.180Z,145.96
2023-03-06T11:44:00.338Z,155.87
2023-03-06T11:48:00.380Z,169.90
2023-03-06T11:52:00.327Z,177.71
2023-03-06T11:56:00.378Z,176.57
2023-03-06T12:00:00.394Z,180.21
2023-03-06T12:04:00.343Z,176.39
2023-03-06T12:08:00.428Z,191.88
2023-03-06T12:12:00.542Z,185.78
2023-03-06T12:16:00.565Z,200.29
2023-03-06T12:20:00.720Z,193.89
2023-03-06T12:24:00.723Z,198.68
2023-03-06T12:28:00.682Z,183.65
2023-03-06T12:32:00.763Z,160.49
2023-03-06T12:36:00.715Z,150.31
2023-03-06T12:40:00.545Z,144.40
2023-03-06T12:44:00.544Z,152.91
2023-03-06T12:48:00.513Z,119.21
2023-03-06T12:52:00.468Z,123.87
2023-03-06T12:56:00.425Z,106.36
2023-03-06T13:00:00.462Z,41.73
2023-03-06T13:04:00.365Z,60.41
2023-03-06T13:08:00.365Z,82.90
2023-03-06T13:12:00.301Z,73.87
2023-03-06T13:16:00.263Z,74.36
2023-03-06T13:20:00.222Z,48.10
2023-03-06T13:24:00.215Z,42.48
2023-03-06T13:28:00.136Z,68.36
2023-03-06T13:32:00.441Z,109.13
2023-03-06T13:36:00.407Z,122.16
2023-03-06T13:40:00.367Z,134.45
2023-03-06T13:44:00.508Z,145.74
2023-03-06T13:48:27.317Z,140.43
2023-03-06T13:52:01.316Z,150.82
2023-03-06T13:56:00.737Z,148.93
2023-03-06T14:00:08.781Z,113.34
2023-03-06T14:04:01.382Z,131.42
2023-03-06T14:08:00.196Z,130.94
2023-03-06T14:12:00.180Z,110.24
2023-03-06T14:16:00.136Z,102.54
2023-03-06T14:20:00.055Z,122.27
2023-03-06T14:24:00.753Z,100.08
2023-03-06T14:28:12.367Z,118.75
2023-03-06T14:32:01.232Z,121.67
2023-03-06T14:36:00.141Z,127.38
2023-03-06T14:40:00.017Z,133.55
2023-03-06T14:44:00.017Z,241.19
2023-03-06T14:47:59.968Z,220.13
2023-03-06T14:51:59.944Z,191.79
2023-03-06T14:55:59.904Z,174.40
2023-03-06T15:00:00.026Z,152.04
2023-03-06T15:04:00.029Z,138.60
2023-03-06T15:08:00.164Z,132.91
2023-03-06T15:12:00.199Z,116.45
2023-03-06T15:16:00.337Z,111.89
2023-03-06T15:20:00.338Z,111.23
2023-03-06T15:24:00.410Z,149.15
2023-03-06T15:28:00.375Z,162.66
2023-03-06T15:32:00.546Z,178.46
2023-03-06T15:36:00.528Z,187.37
2023-03-06T15:40:00.662Z,188.95
2023-03-06T15:44:00.838Z,195.04
2023-03-06T15:48:01.030Z,193.10
2023-03-06T15:52:01.215Z,195.57
2023-03-06T15:56:01.408Z,206.03
2023-03-06T16:00:01.602Z,220.09
2023-03-06T16:04:01.724Z,212.00
2023-03-06T16:08:01.885Z,209.83
2023-03-06T16:12:01.954Z,212.63
2023-03-06T16:16:01.974Z,212.02
2023-03-06T16:20:01.989Z,217.50
2023-03-06T16:24:01.930Z,212.65
2023-03-06T16:28:01.928Z,215.71
2023-03-06T16:32:02.140Z,218.27
2023-03-06T16:36:01.949Z,221.36
2023-03-06T16:40:01.903Z,216.33
2023-03-06T16:44:01.925Z,217.31
2023-03-06T16:48:01.955Z,219.37
2023-03-06T16:52:01.997Z,212.73
2023-03-06T16:56:02.016Z,218.06
2023-03-06T17:00:02.152Z,213.99
2023-03-06T17:04:02.102Z,212.85
2023-03-06T17:08:02.166Z,210.97
2023-03-06T17:12:02.237Z,211.75
2023-03-06T17:16:02.803Z,209.12
2023-03-06T17:20:02.430Z,209.62
2023-03-06T17:24:02.509Z,212.98
2023-03-06T17:28:02.631Z,213.56
2023-03-06T17:32:02.831Z,213.97
2023-03-06T17:36:02.912Z,210.38
2023-03-06T17:40:03.046Z,209.57
2023-03-06T17:44:03.161Z,214.09
2023-03-06T17:48:03.322Z,213.72
2023-03-06T17:52:03.527Z,212.49
2023-03-06T17:56:03.693Z,217.33
2023-03-06T18:00:03.825Z,216.53
2023-03-06T18:04:03.998Z,213.98
2023-03-06T18:08:04.244Z,211.67
2023-03-06T18:12:04.311Z,215.01
2023-03-06T18:16:04.581Z,212.45
2023-03-06T18:20:04.731Z,212.52
2023-03-06T18:24:04.892Z,214.07
2023-03-06T18:28:05.139Z,213.82
2023-03-06T18:32:05.513Z,212.86
2023-03-06T18:36:05.331Z,212.23
2023-03-06T18:40:05.263Z,215.80
2023-03-06T18:44:05.292Z,247.10
2023-03-06T18:48:05.255Z,248.83
2023-03-06T18:52:05.192Z,224.24
2023-03-06T18:56:05.178Z,201.60
2023-03-06T19:00:05.132Z,200.87
2023-03-06T19:04:05.134Z,195.21
2023-03-06T19:08:05.045Z,176.11
2023-03-06T19:12:05.036Z,173.71
2023-03-06T19:16:05.146Z,155.95
2023-03-06T19:20:05.808Z,161.48
2023-03-06T19:24:04.910Z,171.16
2023-03-06T19:28:04.842Z,174.05
2023-03-06T19:32:04.986Z,179.96
2023-03-06T19:36:04.791Z,185.20
2023-03-06T19:40:04.772Z,181.54
2023-03-06T19:44:04.714Z,183.03
2023-03-06T19:48:04.719Z,184.86
2023-03-06T19:52:04.687Z,184.25
2023-03-06T19:56:04.588Z,186.76
2023-03-06T20:00:04.591Z,185.76
2023-03-06T20:04:04.553Z,184.04
2023-03-06T20:08:04.549Z,185.85
2023-03-06T20:12:06.009Z,182.49
2023-03-06T20:16:04.491Z,188.24
2023-03-06T20:20:04.411Z,187.65
2023-03-06T20:24:04.397Z,187.33
2023-03-06T20:28:04.364Z,183.38
2023-03-06T20:32:04.332Z,187.80
2023-03-06T20:36:04.315Z,186.75
2023-03-06T20:40:04.284Z,187.48
2023-03-06T20:44:04.198Z,188.81
2023-03-06T20:48:04.167Z,191.31
2023-03-06T20:52:04.360Z,184.55
2023-03-06T20:56:04.083Z,186.98
2023-03-06T21:00:04.065Z,185.27
2023-03-06T21:04:03.997Z,187.46
2023-03-06T21:08:03.970Z,190.15
2023-03-06T21:12:03.927Z,186.43
2023-03-06T21:16:03.916Z,189.46
2023-03-06T21:20:03.912Z,191.79
2023-03-06T21:24:03.854Z,185.91
2023-03-06T21:28:03.790Z,191.24
2023-03-06T21:32:03.822Z,186.81
2023-03-06T21:36:03.769Z,188.13
2023-03-06T21:40:03.688Z,190.61
2023-03-06T21:44:03.740Z,192.49
2023-03-06T21:48:03.606Z,190.70
2023-03-06T21:52:03.602Z,193.71
2023-03-06T21:56:03.527Z,190.16
2023-03-06T22:00:03.501Z,192.06
2023-03-06T22:04:03.546Z,189.80
2023-03-06T22:08:03.415Z,193.11
2023-03-06T22:12:03.412Z,191.29
2023-03-06T22:16:03.460Z,192.89
2023-03-06T22:20:03.631Z,189.30
2023-03-06T22:24:03.728Z,193.03
2023-03-06T22:28:03.790Z,190.76
2023-03-06T22:32:03.976Z,192.24
2023-03-06T22:36:04.101Z,194.99
2023-03-06T22:40:04.112Z,189.39
2023-03-06T22:44:04.404Z,191.12
2023-03-06T22:48:10.883Z,191.13
2023-03-06T22:52:05.291Z,191.76
2023-03-06T22:56:04.275Z,190.47
2023-03-06T23:00:04.237Z,189.28
2023-03-06T23:04:04.436Z,192.67
2023-03-06T23:08:04.457Z,191.54
2023-03-06T23:12:04.620Z,191.70
2023-03-06T23:16:04.892Z,191.25
2023-03-06T23:20:04.988Z,186.30
2023-03-06T23:24:05.149Z,190.39
2023-03-06T23:28:05.322Z,188.56
2023-03-06T23:32:05.445Z,185.41
2023-03-06T23:36:05.608Z,189.43
2023-03-06T23:40:05.738Z,188.87
2023-03-06T23:44:05.912Z,185.93
2023-03-06T23:48:06.139Z,189.09
2023-03-06T23:52:06.364Z,185.77
2023-03-06T23:56:06.497Z,188.09
